sensor_id;sensor_type;location;lat;lon;timestamp;pressure;altitude;pressure_sealevel;temperature;humidity
2192;BME280;1102;49.718;11.902;2023-03-16T00:00:49;96668.97;;;-3.08;100.00
2192;BME280;1102;49.718;11.902;2023-03-16T00:03:16;96657.28;;;-3.11;100.00
2192;BME280;1102;49.718;11.902;2023-03-16T00:05:51;96695.41;;;-2.78;100.00
2192;BME280;1102;49.718;11.902;2023-03-16T00:08:19;96671.25;;;-3.12;100.00
2192;BME280;1102;49.718;11.902;2023-03-16T00:10:46;96688.56;;;-3.12;100.00
2192;BME280;1102;49.718;11.902;2023-03-16T00:13:14;96697.56;;;-2.86;100.00
2192;BME280;1102;49.718;11.902;2023-03-16T00:16:06;96690.38;;;-2.68;100.00
2192;BME280;1102;49.718;11.902;2023-03-16T00:18:33;96690.34;;;-2.56;100.00
2192;BME280;1102;49.718;11.902;2023-03-16T00:21:06;96675.59;;;-2.55;100.00
2192;BME280;1102;49.718;11.902;2023-03-16T00:23:34;96697.47;;;-2.63;100.00
2192;BME280;1102;49.718;11.902;2023-03-16T00:26:04;96684.91;;;-2.71;100.00
2192;BME280;1102;49.718;11.902;2023-03-16T00:28:32;96691.63;;;-2.87;100.00
2192;BME280;1102;49.718;11.902;2023-03-16T00:31:02;96709.63;;;-2.92;100.00
2192;BME280;1102;49.718;11.902;2023-03-16T00:33:30;96677.47;;;-3.24;100.00
2192;BME280;1102;49.718;11.902;2023-03-16T00:36:01;96697.00;;;-3.17;100.00
2192;BME280;1102;49.718;11.902;2023-03-16T00:38:31;96683.88;;;-3.27;100.00
2192;BME280;1102;49.718;11.902;2023-03-16T00:40:57;96661.97;;;-3.36;100.00
2192;BME280;1102;49.718;11.902;2023-03-16T00:43:24;96679.47;;;-3.15;100.00
2192;BME280;1102;49.718;11.902;2023-03-16T00:45:59;96693.59;;;-3.06;100.00
2192;BME280;1102;49.718;11.902;2023-03-16T00:48:35;96682.28;;;-2.88;100.00
2192;BME280;1102;49.718;11.902;2023-03-16T00:51:03;96687.69;;;-2.89;100.00
2192;BME280;1102;49.718;11.902;2023-03-16T00:53:32;96694.63;;;-2.78;100.00
2192;BME280;1102;49.718;11.902;2023-03-16T00:56:00;96654.47;;;-2.81;100.00
2192;BME280;1102;49.718;11.902;2023-03-16T00:58:31;96682.91;;;-2.52;100.00
2192;BME280;1102;49.718;11.902;2023-03-16T01:01:07;96684.25;;;-2.33;100.00
2192;BME280;1102;49.718;11.902;2023-03-16T01:03:34;96693.09;;;-2.46;100.00
2192;BME280;1102;49.718;11.902;2023-03-16T01:06:06;96702.53;;;-2.40;100.00
2192;BME280;1102;49.718;11.902;2023-03-16T01:08:36;96677.38;;;-2.56;100.00
2192;BME280;1102;49.718;11.902;2023-03-16T01:11:17;96711.47;;;-2.30;100.00
2192;BME280;1102;49.718;11.902;2023-03-16T01:13:44;96683.63;;;-2.40;100.00
2192;BME280;1102;49.718;11.902;2023-03-16T01:16:13;96707.94;;;-2.24;100.00
2192;BME280;1102;49.718;11.902;2023-03-16T01:18:40;96697.25;;;-2.45;100.00
2192;BME280;1102;49.718;11.902;2023-03-16T01:21:08;96717.91;;;-2.33;100.00
2192;BME280;1102;49.718;11.902;2023-03-16T01:23:35;96673.28;;;-2.85;100.00
2192;BME280;1102;49.718;11.902;2023-03-16T01:26:03;96711.00;;;-2.73;100.00
2192;BME280;1102;49.718;11.902;2023-03-16T01:28:31;96716.75;;;-2.54;100.00
2192;BME280;1102;49.718;11.902;2023-03-16T01:31:00;96704.41;;;-2.35;100.00
2192;BME280;1102;49.718;11.902;2023-03-16T01:33:29;96715.59;;;-2.46;100.00
2192;BME280;1102;49.718;11.902;2023-03-16T01:35:58;96712.53;;;-2.43;100.00
2192;BME280;1102;49.718;11.902;2023-03-16T01:38:30;96710.34;;;-2.51;100.00
2192;BME280;1102;49.718;11.902;2023-03-16T01:40:57;96682.56;;;-2.73;100.00
2192;BME280;1102;49.718;11.902;2023-03-16T01:43:27;96668.69;;;-3.23;100.00
2192;BME280;1102;49.718;11.902;2023-03-16T01:59:52;96726.41;;;-2.66;100.00
2192;BME280;1102;49.718;11.902;2023-03-16T02:02:22;96725.22;;;-2.58;100.00
2192;BME280;1102;49.718;11.902;2023-03-16T02:05:07;96724.19;;;-2.74;100.00
2192;BME280;1102;49.718;11.902;2023-03-16T02:07:42;96689.06;;;-2.99;100.00
2192;BME280;1102;49.718;11.902;2023-03-16T02:10:11;96720.16;;;-2.82;100.00
2192;BME280;1102;49.718;11.902;2023-03-16T02:12:40;96689.19;;;-2.93;100.00
2192;BME280;1102;49.718;11.902;2023-03-16T02:15:09;96716.53;;;-2.81;100.00
2192;BME280;1102;49.718;11.902;2023-03-16T02:17:37;96708.78;;;-2.81;100.00
2192;BME280;1102;49.718;11.902;2023-03-16T02:22:52;96686.91;;;-3.18;100.00
2192;BME280;1102;49.718;11.902;2023-03-16T02:25:27;96710.00;;;-3.00;100.00
2192;BME280;1102;49.718;11.902;2023-03-16T02:28:03;96710.59;;;-2.81;100.00
2192;BME280;1102;49.718;11.902;2023-03-16T02:30:38;96693.59;;;-3.06;100.00
2192;BME280;1102;49.718;11.902;2023-03-16T02:33:04;96715.00;;;-3.22;100.00
2192;BME280;1102;49.718;11.902;2023-03-16T02:35:32;96683.06;;;-3.68;100.00
2192;BME280;1102;49.718;11.902;2023-03-16T02:38:01;96688.78;;;-3.66;100.00
2192;BME280;1102;49.718;11.902;2023-03-16T02:40:33;96698.56;;;-3.68;100.00
2192;BME280;1102;49.718;11.902;2023-03-16T02:43:16;96702.47;;;-3.53;100.00
2192;BME280;1102;49.718;11.902;2023-03-16T02:45:59;96704.94;;;-3.47;100.00
2192;BME280;1102;49.718;11.902;2023-03-16T02:48:37;96680.16;;;-3.71;100.00
2192;BME280;1102;49.718;11.902;2023-03-16T02:51:09;96675.31;;;-3.79;100.00
2192;BME280;1102;49.718;11.902;2023-03-16T02:53:36;96704.19;;;-3.71;100.00
2192;BME280;1102;49.718;11.902;2023-03-16T02:56:03;96714.72;;;-3.49;100.00
2192;BME280;1102;49.718;11.902;2023-03-16T02:58:33;96713.34;;;-3.28;100.00
2192;BME280;1102;49.718;11.902;2023-03-16T03:01:03;96675.72;;;-3.47;100.00
2192;BME280;1102;49.718;11.902;2023-03-16T03:03:32;96697.63;;;-3.38;100.00
2192;BME280;1102;49.718;11.902;2023-03-16T03:06:00;96682.56;;;-3.41;100.00
2192;BME280;1102;49.718;11.902;2023-03-16T03:08:32;96723.00;;;-3.35;100.00
2192;BME280;1102;49.718;11.902;2023-03-16T03:10:58;96690.00;;;-3.45;100.00
2192;BME280;1102;49.718;11.902;2023-03-16T03:13:25;96696.84;;;-3.50;100.00
2192;BME280;1102;49.718;11.902;2023-03-16T03:15:52;96711.75;;;-3.29;100.00
2192;BME280;1102;49.718;11.902;2023-03-16T03:18:21;96668.28;;;-3.32;100.00
2192;BME280;1102;49.718;11.902;2023-03-16T03:20:51;96700.91;;;-3.03;100.00
2192;BME280;1102;49.718;11.902;2023-03-16T03:23:18;96697.09;;;-3.12;100.00
2192;BME280;1102;49.718;11.902;2023-03-16T03:25:45;96640.53;;;-3.37;100.00
2192;BME280;1102;49.718;11.902;2023-03-16T03:28:14;96692.59;;;-3.05;100.00
2192;BME280;1102;49.718;11.902;2023-03-16T03:30:41;96702.81;;;-3.10;100.00
2192;BME280;1102;49.718;11.902;2023-03-16T03:33:08;96721.03;;;-3.05;100.00
2192;BME280;1102;49.718;11.902;2023-03-16T03:35:35;96704.38;;;-3.09;100.00
2192;BME280;1102;49.718;11.902;2023-03-16T03:38:02;96698.47;;;-3.21;100.00
2192;BME280;1102;49.718;11.902;2023-03-16T03:40:29;96690.09;;;-3.40;100.00
2192;BME280;1102;49.718;11.902;2023-03-16T03:43:00;96699.09;;;-3.42;100.00
2192;BME280;1102;49.718;11.902;2023-03-16T03:45:28;96700.66;;;-3.41;100.00
2192;BME280;1102;49.718;11.902;2023-03-16T03:47:55;96721.09;;;-3.28;100.00
2192;BME280;1102;49.718;11.902;2023-03-16T03:50:22;96727.38;;;-3.24;100.00
2192;BME280;1102;49.718;11.902;2023-03-16T03:53:01;96719.03;;;-3.14;100.00
2192;BME280;1102;49.718;11.902;2023-03-16T03:55:30;96729.66;;;-2.99;100.00
2192;BME280;1102;49.718;11.902;2023-03-16T03:57:57;96703.97;;;-3.17;100.00
2192;BME280;1102;49.718;11.902;2023-03-16T04:00:24;96713.78;;;-3.19;100.00
2192;BME280;1102;49.718;11.902;2023-03-16T04:02:51;96695.16;;;-3.33;100.00
2192;BME280;1102;49.718;11.902;2023-03-16T04:05:25;96725.06;;;-3.09;100.00
2192;BME280;1102;49.718;11.902;2023-03-16T04:07:53;96723.09;;;-3.18;100.00
2192;BME280;1102;49.718;11.902;2023-03-16T04:10:27;96726.75;;;-3.54;100.00
2192;BME280;1102;49.718;11.902;2023-03-16T04:12:56;96717.66;;;-3.80;100.00
2192;BME280;1102;49.718;11.902;2023-03-16T04:15:24;96594.63;;;-4.57;100.00
2192;BME280;1102;49.718;11.902;2023-03-16T04:18:01;96689.38;;;-3.99;100.00
2192;BME280;1102;49.718;11.902;2023-03-16T04:20:29;96713.59;;;-3.76;100.00
2192;BME280;1102;49.718;11.902;2023-03-16T04:22:56;96698.34;;;-3.66;100.00
2192;BME280;1102;49.718;11.902;2023-03-16T04:25:27;96720.09;;;-3.39;100.00
2192;BME280;1102;49.718;11.902;2023-03-16T04:27:56;96704.38;;;-3.49;100.00
2192;BME280;1102;49.718;11.902;2023-03-16T04:30:27;96679.78;;;-3.51;100.00
2192;BME280;1102;49.718;11.902;2023-03-16T04:33:02;96615.94;;;-3.91;100.00
2192;BME280;1102;49.718;11.902;2023-03-16T04:35:30;96670.16;;;-3.79;100.00
2192;BME280;1102;49.718;11.902;2023-03-16T04:37:57;96682.28;;;-3.68;100.00
2192;BME280;1102;49.718;11.902;2023-03-16T04:40:33;96660.16;;;-3.88;100.00
2192;BME280;1102;49.718;11.902;2023-03-16T04:43:06;96686.88;;;-3.70;100.00
2192;BME280;1102;49.718;11.902;2023-03-16T04:45:34;96679.16;;;-3.70;100.00
2192;BME280;1102;49.718;11.902;2023-03-16T04:48:00;96658.50;;;-3.94;100.00
2192;BME280;1102;49.718;11.902;2023-03-16T04:50:27;96662.66;;;-3.93;100.00
2192;BME280;1102;49.718;11.902;2023-03-16T04:52:54;96637.63;;;-4.16;100.00
2192;BME280;1102;49.718;11.902;2023-03-16T04:55:21;96696.88;;;-3.62;100.00
2192;BME280;1102;49.718;11.902;2023-03-16T04:57:49;96693.06;;;-3.71;100.00
2192;BME280;1102;49.718;11.902;2023-03-16T05:00:17;96682.84;;;-3.78;100.00
2192;BME280;1102;49.718;11.902;2023-03-16T05:02:52;96675.22;;;-3.96;100.00
2192;BME280;1102;49.718;11.902;2023-03-16T05:05:20;96645.25;;;-4.09;100.00
2192;BME280;1102;49.718;11.902;2023-03-16T05:07:48;96663.97;;;-3.78;100.00
2192;BME280;1102;49.718;11.902;2023-03-16T05:10:16;96655.34;;;-3.72;100.00
2192;BME280;1102;49.718;11.902;2023-03-16T05:12:45;96643.84;;;-3.65;100.00
2192;BME280;1102;49.718;11.902;2023-03-16T05:15:12;96693.84;;;-3.71;100.00
2192;BME280;1102;49.718;11.902;2023-03-16T05:17:41;96662.63;;;-3.69;100.00
2192;BME280;1102;49.718;11.902;2023-03-16T05:20:10;96677.75;;;-3.49;100.00
2192;BME280;1102;49.718;11.902;2023-03-16T05:22:45;96669.03;;;-3.60;100.00
2192;BME280;1102;49.718;11.902;2023-03-16T05:25:22;96669.13;;;-3.55;100.00
2192;BME280;1102;49.718;11.902;2023-03-16T05:27:52;96668.97;;;-3.48;100.00
2192;BME280;1102;49.718;11.902;2023-03-16T05:30:34;96695.34;;;-3.35;100.00
2192;BME280;1102;49.718;11.902;2023-03-16T05:33:04;96687.94;;;-3.31;100.00
2192;BME280;1102;49.718;11.902;2023-03-16T05:35:32;96709.00;;;-3.11;100.00
2192;BME280;1102;49.718;11.902;2023-03-16T05:38:03;96704.72;;;-3.05;100.00
2192;BME280;1102;49.718;11.902;2023-03-16T05:40:33;96677.06;;;-3.33;100.00
2192;BME280;1102;49.718;11.902;2023-03-16T05:43:19;96701.72;;;-3.14;100.00
2192;BME280;1102;49.718;11.902;2023-03-16T05:45:49;96687.47;;;-3.28;100.00
2192;BME280;1102;49.718;11.902;2023-03-16T05:48:17;96702.13;;;-3.45;100.00
2192;BME280;1102;49.718;11.902;2023-03-16T05:50:49;96689.44;;;-3.47;100.00
2192;BME280;1102;49.718;11.902;2023-03-16T05:53:18;96693.13;;;-3.31;100.00
2192;BME280;1102;49.718;11.902;2023-03-16T05:55:52;96658.88;;;-3.50;100.00
2192;BME280;1102;49.718;11.902;2023-03-16T05:58:19;96675.91;;;-3.37;100.00
2192;BME280;1102;49.718;11.902;2023-03-16T06:00:48;96696.69;;;-3.20;100.00
2192;BME280;1102;49.718;11.902;2023-03-16T06:03:26;96715.31;;;-3.07;100.00
2192;BME280;1102;49.718;11.902;2023-03-16T06:05:55;96706.41;;;-3.11;100.00
2192;BME280;1102;49.718;11.902;2023-03-16T06:08:28;96706.69;;;-3.24;100.00
2192;BME280;1102;49.718;11.902;2023-03-16T06:11:01;96711.75;;;-3.17;100.00
2192;BME280;1102;49.718;11.902;2023-03-16T06:13:29;96654.97;;;-3.24;100.00
2192;BME280;1102;49.718;11.902;2023-03-16T06:15:55;96686.50;;;-3.50;100.00
2192;BME280;1102;49.718;11.902;2023-03-16T06:18:22;96684.59;;;-3.43;100.00
2192;BME280;1102;49.718;11.902;2023-03-16T06:20:49;96684.53;;;-3.60;100.00
2192;BME280;1102;49.718;11.902;2023-03-16T06:23:17;96716.97;;;-3.52;100.00
2192;BME280;1102;49.718;11.902;2023-03-16T06:25:47;96722.69;;;-3.39;100.00
2192;BME280;1102;49.718;11.902;2023-03-16T06:28:14;96696.81;;;-3.39;100.00
2192;BME280;1102;49.718;11.902;2023-03-16T06:30:41;96698.34;;;-3.14;100.00
2192;BME280;1102;49.718;11.902;2023-03-16T06:33:08;96698.41;;;-3.38;100.00
2192;BME280;1102;49.718;11.902;2023-03-16T06:35:35;96694.44;;;-3.17;100.00
2192;BME280;1102;49.718;11.902;2023-03-16T06:38:10;96731.63;;;-3.18;100.00
2192;BME280;1102;49.718;11.902;2023-03-16T06:41:03;96633.09;;;-3.73;100.00
2192;BME280;1102;49.718;11.902;2023-03-16T06:43:32;96739.38;;;-3.06;100.00
2192;BME280;1102;49.718;11.902;2023-03-16T06:45:59;96739.16;;;-3.16;100.00
2192;BME280;1102;49.718;11.902;2023-03-16T06:48:27;96751.41;;;-3.12;100.00
2192;BME280;1102;49.718;11.902;2023-03-16T06:50:54;96737.66;;;-3.01;100.00
2192;BME280;1102;49.718;11.902;2023-03-16T06:53:24;96700.44;;;-3.40;100.00
2192;BME280;1102;49.718;11.902;2023-03-16T06:55:52;96734.56;;;-3.26;100.00
2192;BME280;1102;49.718;11.902;2023-03-16T06:58:19;96718.00;;;-3.13;100.00
2192;BME280;1102;49.718;11.902;2023-03-16T07:00:46;96714.78;;;-3.20;100.00
2192;BME280;1102;49.718;11.902;2023-03-16T07:03:13;96721.19;;;-3.35;100.00
2192;BME280;1102;49.718;11.902;2023-03-16T07:05:46;96710.97;;;-3.30;100.00
2192;BME280;1102;49.718;11.902;2023-03-16T07:08:12;96733.16;;;-2.93;100.00
2192;BME280;1102;49.718;11.902;2023-03-16T07:10:40;96759.03;;;-2.65;100.00
2192;BME280;1102;49.718;11.902;2023-03-16T07:13:07;96758.94;;;-2.82;100.00
2192;BME280;1102;49.718;11.902;2023-03-16T07:15:34;96722.38;;;-2.74;100.00
2192;BME280;1102;49.718;11.902;2023-03-16T07:18:01;96773.50;;;-2.52;100.00
2192;BME280;1102;49.718;11.902;2023-03-16T07:20:28;96771.28;;;-2.44;100.00
2192;BME280;1102;49.718;11.902;2023-03-16T07:22:59;96721.66;;;-2.98;100.00
2192;BME280;1102;49.718;11.902;2023-03-16T07:25:26;96776.88;;;-2.52;100.00
2192;BME280;1102;49.718;11.902;2023-03-16T07:27:53;96776.75;;;-2.28;100.00
2192;BME280;1102;49.718;11.902;2023-03-16T07:30:26;96775.09;;;-2.34;100.00
2192;BME280;1102;49.718;11.902;2023-03-16T07:32:56;96792.25;;;-2.45;100.00
2192;BME280;1102;49.718;11.902;2023-03-16T07:35:24;96746.13;;;-2.77;100.00
2192;BME280;1102;49.718;11.902;2023-03-16T07:37:52;96773.25;;;-2.51;100.00
2192;BME280;1102;49.718;11.902;2023-03-16T07:40:20;96769.06;;;-2.40;100.00
2192;BME280;1102;49.718;11.902;2023-03-16T07:42:46;96786.78;;;-2.32;100.00
2192;BME280;1102;49.718;11.902;2023-03-16T07:45:23;96782.38;;;-2.31;100.00
2192;BME280;1102;49.718;11.902;2023-03-16T07:47:51;96756.66;;;-2.38;100.00
2192;BME280;1102;49.718;11.902;2023-03-16T07:50:29;96760.81;;;-2.37;100.00
2192;BME280;1102;49.718;11.902;2023-03-16T07:52:56;96764.38;;;-2.26;100.00
2192;BME280;1102;49.718;11.902;2023-03-16T07:55:23;96764.91;;;-2.24;100.00
2192;BME280;1102;49.718;11.902;2023-03-16T07:57:52;96780.59;;;-2.14;100.00
2192;BME280;1102;49.718;11.902;2023-03-16T08:00:28;96798.28;;;-1.94;100.00
2192;BME280;1102;49.718;11.902;2023-03-16T08:02:56;96800.66;;;-1.93;100.00
2192;BME280;1102;49.718;11.902;2023-03-16T08:05:23;96775.75;;;-2.11;100.00
2192;BME280;1102;49.718;11.902;2023-03-16T08:07:57;96777.09;;;-2.08;100.00
2192;BME280;1102;49.718;11.902;2023-03-16T08:10:26;96779.94;;;-1.93;100.00
2192;BME280;1102;49.718;11.902;2023-03-16T08:13:03;96803.88;;;-1.86;100.00
2192;BME280;1102;49.718;11.902;2023-03-16T08:15:34;96792.09;;;-2.10;100.00
2192;BME280;1102;49.718;11.902;2023-03-16T08:18:09;96795.63;;;-1.83;100.00
2192;BME280;1102;49.718;11.902;2023-03-16T08:20:36;96765.88;;;-1.97;100.00
2192;BME280;1102;49.718;11.902;2023-03-16T08:23:03;96768.53;;;-1.92;100.00
2192;BME280;1102;49.718;11.902;2023-03-16T08:25:37;96782.13;;;-1.68;100.00
2192;BME280;1102;49.718;11.902;2023-03-16T08:28:10;96799.78;;;-1.48;100.00
2192;BME280;1102;49.718;11.902;2023-03-16T08:30:45;96798.75;;;-1.47;100.00
2192;BME280;1102;49.718;11.902;2023-03-16T08:33:31;96777.41;;;-1.54;100.00
2192;BME280;1102;49.718;11.902;2023-03-16T08:35:58;96781.31;;;-1.52;100.00
2192;BME280;1102;49.718;11.902;2023-03-16T08:38:25;96794.13;;;-1.45;100.00
2192;BME280;1102;49.718;11.902;2023-03-16T08:40:52;96807.06;;;-1.28;100.00
2192;BME280;1102;49.718;11.902;2023-03-16T08:43:20;96777.22;;;-1.48;100.00
2192;BME280;1102;49.718;11.902;2023-03-16T08:45:48;96780.28;;;-1.51;100.00
2192;BME280;1102;49.718;11.902;2023-03-16T08:48:19;96768.59;;;-1.53;100.00
2192;BME280;1102;49.718;11.902;2023-03-16T08:50:48;96775.16;;;-1.29;100.00
2192;BME280;1102;49.718;11.902;2023-03-16T08:53:15;96805.13;;;-0.99;100.00
2192;BME280;1102;49.718;11.902;2023-03-16T08:55:41;96779.72;;;-1.36;100.00
2192;BME280;1102;49.718;11.902;2023-03-16T08:58:09;96750.22;;;-1.52;100.00
2192;BME280;1102;49.718;11.902;2023-03-16T09:00:37;96811.28;;;-1.22;100.00
2192;BME280;1102;49.718;11.902;2023-03-16T09:03:04;96808.88;;;-1.29;100.00
2192;BME280;1102;49.718;11.902;2023-03-16T09:05:32;96790.88;;;-1.18;100.00
2192;BME280;1102;49.718;11.902;2023-03-16T09:07:59;96785.59;;;-1.24;100.00
2192;BME280;1102;49.718;11.902;2023-03-16T09:10:27;96780.41;;;-1.24;100.00
2192;BME280;1102;49.718;11.902;2023-03-16T09:12:54;96797.38;;;-0.94;100.00
2192;BME280;1102;49.718;11.902;2023-03-16T09:15:22;96793.78;;;-0.93;100.00
2192;BME280;1102;49.718;11.902;2023-03-16T09:17:48;96767.47;;;-0.80;100.00
2192;BME280;1102;49.718;11.902;2023-03-16T09:20:16;96795.75;;;-0.56;100.00
2192;BME280;1102;49.718;11.902;2023-03-16T09:23:00;96791.31;;;-0.34;100.00
2192;BME280;1102;49.718;11.902;2023-03-16T09:25:27;96773.66;;;-0.59;100.00
2192;BME280;1102;49.718;11.902;2023-03-16T09:27:54;96771.84;;;-0.32;100.00
2192;BME280;1102;49.718;11.902;2023-03-16T09:30:21;96785.09;;;-0.33;100.00
2192;BME280;1102;49.718;11.902;2023-03-16T09:32:47;96753.75;;;-0.75;100.00
2192;BME280;1102;49.718;11.902;2023-03-16T09:35:15;96789.72;;;-0.13;100.00
2192;BME280;1102;49.718;11.902;2023-03-16T09:37:42;96771.47;;;-0.18;100.00
2192;BME280;1102;49.718;11.902;2023-03-16T09:40:29;96797.38;;;0.04;100.00
2192;BME280;1102;49.718;11.902;2023-03-16T09:48:27;96800.19;;;0.66;100.00
2192;BME280;1102;49.718;11.902;2023-03-16T09:50:57;96769.69;;;0.56;100.00
2192;BME280;1102;49.718;11.902;2023-03-16T09:53:33;96797.53;;;0.24;100.00
2192;BME280;1102;49.718;11.902;2023-03-16T09:59:10;96773.72;;;0.79;100.00
2192;BME280;1102;49.718;11.902;2023-03-16T10:07:46;96794.34;;;0.91;100.00
2192;BME280;1102;49.718;11.902;2023-03-16T10:12:59;96763.47;;;0.63;100.00
2192;BME280;1102;49.718;11.902;2023-03-16T10:15:31;96783.31;;;1.21;100.00
2192;BME280;1102;49.718;11.902;2023-03-16T10:18:11;96788.53;;;1.31;100.00
2192;BME280;1102;49.718;11.902;2023-03-16T10:20:41;96707.50;;;1.17;100.00
2192;BME280;1102;49.718;11.902;2023-03-16T10:23:19;96787.88;;;1.76;100.00
2192;BME280;1102;49.718;11.902;2023-03-16T10:25:57;96789.69;;;1.71;100.00
2192;BME280;1102;49.718;11.902;2023-03-16T10:28:26;96784.22;;;1.67;100.00
2192;BME280;1102;49.718;11.902;2023-03-16T10:30:55;96777.97;;;1.68;100.00
2192;BME280;1102;49.718;11.902;2023-03-16T10:40:53;96744.63;;;1.86;100.00
2192;BME280;1102;49.718;11.902;2023-03-16T10:43:20;96746.19;;;1.92;100.00
2192;BME280;1102;49.718;11.902;2023-03-16T10:45:46;96774.34;;;2.10;100.00
2192;BME280;1102;49.718;11.902;2023-03-16T10:48:16;96771.72;;;2.61;100.00
2192;BME280;1102;49.718;11.902;2023-03-16T10:50:51;96711.72;;;2.46;100.00
2192;BME280;1102;49.718;11.902;2023-03-16T10:53:30;96756.28;;;2.75;100.00
2192;BME280;1102;49.718;11.902;2023-03-16T10:56:08;96778.78;;;2.40;100.00
2192;BME280;1102;49.718;11.902;2023-03-16T10:58:39;96755.81;;;2.52;100.00
2192;BME280;1102;49.718;11.902;2023-03-16T11:01:20;96783.16;;;2.80;100.00
2192;BME280;1102;49.718;11.902;2023-03-16T11:03:56;96778.19;;;2.94;100.00
2192;BME280;1102;49.718;11.902;2023-03-16T11:06:26;96726.81;;;2.69;100.00
2192;BME280;1102;49.718;11.902;2023-03-16T11:09:04;96753.47;;;3.36;100.00
2192;BME280;1102;49.718;11.902;2023-03-16T11:11:34;96746.13;;;3.38;100.00
2192;BME280;1102;49.718;11.902;2023-03-16T11:14:08;96730.75;;;3.31;100.00
2192;BME280;1102;49.718;11.902;2023-03-16T11:17:22;96735.75;;;3.17;100.00
2192;BME280;1102;49.718;11.902;2023-03-16T11:19:30;96726.44;;;3.55;100.00
2192;BME280;1102;49.718;11.902;2023-03-16T11:22:11;96753.75;;;3.73;100.00
2192;BME280;1102;49.718;11.902;2023-03-16T11:30:46;96764.59;;;4.01;100.00
2192;BME280;1102;49.718;11.902;2023-03-16T11:33:17;96713.63;;;3.93;100.00
2192;BME280;1102;49.718;11.902;2023-03-16T11:41:50;96719.91;;;4.50;100.00
2192;BME280;1102;49.718;11.902;2023-03-16T11:44:37;96753.94;;;4.50;94.61
2192;BME280;1102;49.718;11.902;2023-03-16T11:47:48;96756.91;;;4.96;97.73
2192;BME280;1102;49.718;11.902;2023-03-16T12:12:57;96745.50;;;6.84;79.32
2192;BME280;1102;49.718;11.902;2023-03-16T12:15:46;96724.38;;;7.03;81.92
2192;BME280;1102;49.718;11.902;2023-03-16T12:21:20;96731.78;;;7.64;78.75
2192;BME280;1102;49.718;11.902;2023-03-16T12:23:52;96727.06;;;7.39;78.93
2192;BME280;1102;49.718;11.902;2023-03-16T12:26:23;96736.84;;;7.75;79.08
2192;BME280;1102;49.718;11.902;2023-03-16T12:28:52;96703.28;;;7.44;80.25
2192;BME280;1102;49.718;11.902;2023-03-16T12:31:52;96690.97;;;7.53;78.68
2192;BME280;1102;49.718;11.902;2023-03-16T12:34:38;96727.94;;;7.70;77.94
2192;BME280;1102;49.718;11.902;2023-03-16T12:39:51;96672.25;;;8.44;77.59
2192;BME280;1102;49.718;11.902;2023-03-16T12:42:38;96715.00;;;8.72;80.62
2192;BME280;1102;49.718;11.902;2023-03-16T12:45:26;96713.84;;;9.04;80.04
2192;BME280;1102;49.718;11.902;2023-03-16T12:50:54;96682.88;;;9.27;77.74
2192;BME280;1102;49.718;11.902;2023-03-16T12:56:12;96702.47;;;8.86;76.25
2192;BME280;1102;49.718;11.902;2023-03-16T12:58:49;96700.94;;;8.85;76.75
2192;BME280;1102;49.718;11.902;2023-03-16T13:01:19;96689.59;;;8.85;76.31
2192;BME280;1102;49.718;11.902;2023-03-16T13:03:59;96677.06;;;8.51;78.82
2192;BME280;1102;49.718;11.902;2023-03-16T13:06:32;96686.88;;;8.59;78.10
2192;BME280;1102;49.718;11.902;2023-03-16T13:09:03;96677.78;;;8.74;76.30
2192;BME280;1102;49.718;11.902;2023-03-16T13:11:45;96655.00;;;8.38;77.18
2192;BME280;1102;49.718;11.902;2023-03-16T13:17:22;96635.59;;;8.03;76.69
2192;BME280;1102;49.718;11.902;2023-03-16T13:23:20;96659.75;;;8.58;75.19
2192;BME280;1102;49.718;11.902;2023-03-16T13:28:32;96585.09;;;8.98;74.42
2192;BME280;1102;49.718;11.902;2023-03-16T13:30:59;96658.06;;;9.54;73.77
2192;BME280;1102;49.718;11.902;2023-03-16T13:33:29;96661.25;;;9.08;71.79
2192;BME280;1102;49.718;11.902;2023-03-16T13:35:58;96623.41;;;9.73;73.19
2192;BME280;1102;49.718;11.902;2023-03-16T13:38:26;96653.50;;;10.06;71.51
2192;BME280;1102;49.718;11.902;2023-03-16T13:41:02;96659.41;;;10.03;70.14
2192;BME280;1102;49.718;11.902;2023-03-16T13:43:30;96669.38;;;10.62;70.66
2192;BME280;1102;49.718;11.902;2023-03-16T13:45:58;96607.44;;;9.52;71.67
2192;BME280;1102;49.718;11.902;2023-03-16T13:48:25;96625.84;;;10.04;72.27
2192;BME280;1102;49.718;11.902;2023-03-16T13:50:53;96658.34;;;10.60;70.16
2192;BME280;1102;49.718;11.902;2023-03-16T13:53:26;96646.66;;;10.61;70.36
2192;BME280;1102;49.718;11.902;2023-03-16T13:55:56;96642.59;;;11.22;69.47
2192;BME280;1102;49.718;11.902;2023-03-16T13:58:28;96634.09;;;9.94;71.34
2192;BME280;1102;49.718;11.902;2023-03-16T14:01:02;96634.38;;;10.10;70.64
2192;BME280;1102;49.718;11.902;2023-03-16T14:03:35;96605.47;;;10.51;71.17
2192;BME280;1102;49.718;11.902;2023-03-16T14:06:06;96610.41;;;10.32;69.98
2192;BME280;1102;49.718;11.902;2023-03-16T14:08:48;96621.06;;;9.80;68.90
2192;BME280;1102;49.718;11.902;2023-03-16T14:11:16;96612.97;;;10.02;70.45
2192;BME280;1102;49.718;11.902;2023-03-16T14:13:50;96630.34;;;9.95;69.20
2192;BME280;1102;49.718;11.902;2023-03-16T14:16:22;96589.91;;;10.12;71.81
2192;BME280;1102;49.718;11.902;2023-03-16T14:19:05;96623.97;;;10.04;69.61
2192;BME280;1102;49.718;11.902;2023-03-16T14:21:33;96635.72;;;10.33;68.52
2192;BME280;1102;49.718;11.902;2023-03-16T14:24:03;96637.84;;;10.48;67.52
2192;BME280;1102;49.718;11.902;2023-03-16T14:26:42;96639.00;;;10.98;67.73
2192;BME280;1102;49.718;11.902;2023-03-16T14:29:27;96627.13;;;9.72;68.06
2192;BME280;1102;49.718;11.902;2023-03-16T14:31:57;96598.59;;;10.29;66.20
2192;BME280;1102;49.718;11.902;2023-03-16T14:34:30;96629.47;;;10.76;60.22
2192;BME280;1102;49.718;11.902;2023-03-16T14:39:31;96590.41;;;10.52;58.99
2192;BME280;1102;49.718;11.902;2023-03-16T14:42:02;96615.22;;;10.30;56.95
2192;BME280;1102;49.718;11.902;2023-03-16T14:44:31;96606.69;;;10.62;58.54
2192;BME280;1102;49.718;11.902;2023-03-16T14:47:01;96609.94;;;10.89;55.64
2192;BME280;1102;49.718;11.902;2023-03-16T14:49:34;96582.19;;;10.95;57.18
2192;BME280;1102;49.718;11.902;2023-03-16T14:52:35;96595.31;;;10.32;55.01
2192;BME280;1102;49.718;11.902;2023-03-16T14:55:10;96608.69;;;10.65;54.54
2192;BME280;1102;49.718;11.902;2023-03-16T14:57:39;96589.75;;;10.55;55.36
2192;BME280;1102;49.718;11.902;2023-03-16T15:00:09;96569.28;;;10.73;53.86
2192;BME280;1102;49.718;11.902;2023-03-16T15:02:38;96563.50;;;10.50;55.47
2192;BME280;1102;49.718;11.902;2023-03-16T15:05:07;96583.22;;;10.52;53.76